createdAt,value
2018-08-25T00:00:22.920Z,12.07
2018-08-25T00:02:51.784Z,11.53
2018-08-25T00:05:20.616Z,11.60
2018-08-25T00:07:49.444Z,11.57
2018-08-25T00:10:18.339Z,12.00
2018-08-25T00:12:47.157Z,11.57
2018-08-25T00:15:16.036Z,11.30
2018-08-25T00:17:44.914Z,10.17
2018-08-25T00:20:13.768Z,9.70
2018-08-25T00:22:42.615Z,11.73
2018-08-25T00:25:11.450Z,10.90
2018-08-25T00:27:40.275Z,10.87
2018-08-25T00:30:14.737Z,9.70
2018-08-25T00:32:43.571Z,10.77
2018-08-25T00:35:12.449Z,11.20
2018-08-25T00:37:41.255Z,9.50
2018-08-25T00:40:10.346Z,8.00
2018-08-25T00:42:39.269Z,9.33
2018-08-25T00:45:08.192Z,7.60
2018-08-25T00:47:37.125Z,7.10
2018-08-25T00:50:05.991Z,8.00
2018-08-25T00:52:35.113Z,8.13
2018-08-25T00:55:04.410Z,7.27
2018-08-25T00:57:33.397Z,7.30
2018-08-25T01:00:02.431Z,8.10
2018-08-25T01:02:31.278Z,8.47
2018-08-25T01:05:00.162Z,7.73
2018-08-25T01:07:29.146Z,8.43
2018-08-25T01:09:57.929Z,7.90
2018-08-25T01:12:26.810Z,8.70
2018-08-25T01:14:55.650Z,9.30
2018-08-25T01:17:24.459Z,8.00
2018-08-25T01:19:53.313Z,8.27
2018-08-25T01:22:22.178Z,8.10
2018-08-25T01:24:50.995Z,7.67
2018-08-25T01:27:20.171Z,8.93
2018-08-25T01:29:49.002Z,8.60
2018-08-25T01:32:21.043Z,8.47
2018-08-25T01:34:49.862Z,9.10
2018-08-25T01:37:18.754Z,8.20
2018-08-25T01:39:47.616Z,8.60
2018-08-25T01:42:16.436Z,8.40
2018-08-25T01:44:45.495Z,9.13
2018-08-25T01:47:14.442Z,7.77
2018-08-25T01:49:43.259Z,7.80
2018-08-25T01:52:12.077Z,8.27
2018-08-25T01:54:40.923Z,7.90
2018-08-25T01:57:09.947Z,8.37
2018-08-25T01:59:38.844Z,7.50
2018-08-25T02:02:07.695Z,9.03
2018-08-25T02:04:36.534Z,8.43
2018-08-25T02:07:05.501Z,9.33
2018-08-25T02:09:34.506Z,8.40
2018-08-25T02:12:03.324Z,11.10
2018-08-25T02:14:32.167Z,7.90
2018-08-25T02:17:01.035Z,7.83
2018-08-25T02:19:29.847Z,7.90
2018-08-25T02:21:58.965Z,8.10
2018-08-25T02:24:27.791Z,9.57
2018-08-25T02:26:56.675Z,10.07
2018-08-25T02:29:25.532Z,8.37
2018-08-25T02:31:54.360Z,7.60
2018-08-25T02:34:23.415Z,9.20
2018-08-25T02:36:52.343Z,8.30
2018-08-25T02:39:21.160Z,8.60
2018-08-25T02:41:49.982Z,6.93
2018-08-25T02:44:18.804Z,8.33
2018-08-25T02:46:47.862Z,8.17
2018-08-25T02:49:16.714Z,9.23
2018-08-25T02:51:45.546Z,8.27
2018-08-25T02:54:14.373Z,8.07
2018-08-25T02:56:43.235Z,8.10
2018-08-25T02:59:12.320Z,8.57
2018-08-25T03:01:41.162Z,9.33
2018-08-25T03:04:09.987Z,8.20
2018-08-25T03:06:38.834Z,8.33
2018-08-25T03:09:10.203Z,8.27
2018-08-25T03:11:39.231Z,8.07
2018-08-25T03:14:08.288Z,8.27
2018-08-25T03:16:37.135Z,9.63
2018-08-25T03:19:05.980Z,8.33
2018-08-25T03:21:34.814Z,8.13
2018-08-25T03:24:03.686Z,9.43
2018-08-25T03:26:32.602Z,9.97
2018-08-25T03:29:01.571Z,7.57
2018-08-25T03:31:30.409Z,8.70
2018-08-25T03:33:59.233Z,7.70
2018-08-25T03:36:28.087Z,8.80
2018-08-25T03:38:56.907Z,8.73
2018-08-25T03:41:25.747Z,9.17
2018-08-25T03:43:54.555Z,8.73
2018-08-25T03:46:23.699Z,8.43
2018-08-25T03:48:52.602Z,7.90
2018-08-25T03:51:21.414Z,8.90
2018-08-25T03:53:50.491Z,8.03
2018-08-25T03:56:19.730Z,9.03
2018-08-25T03:58:48.567Z,8.23
2018-08-25T04:01:17.404Z,8.60
2018-08-25T04:03:46.271Z,8.17
2018-08-25T04:06:15.168Z,7.87
2018-08-25T04:08:43.986Z,8.13
2018-08-25T04:11:12.867Z,8.20
2018-08-25T04:13:41.707Z,8.40
2018-08-25T04:16:10.622Z,8.67
2018-08-25T04:18:39.434Z,8.87
2018-08-25T04:21:08.275Z,8.37
2018-08-25T04:23:37.161Z,9.33
2018-08-25T04:26:06.336Z,7.37
2018-08-25T04:28:35.156Z,8.47
2018-08-25T04:31:03.989Z,8.10
2018-08-25T04:33:32.816Z,8.97
2018-08-25T04:36:01.654Z,9.70
2018-08-25T04:38:30.452Z,8.80
2018-08-25T04:40:59.279Z,9.60
2018-08-25T04:43:28.116Z,9.13
2018-08-25T04:45:57.003Z,7.57
2018-08-25T04:48:25.820Z,8.80
2018-08-25T04:50:54.627Z,8.40
2018-08-25T04:53:23.466Z,8.00
2018-08-25T04:55:52.364Z,8.90
2018-08-25T04:58:21.175Z,8.90
2018-08-25T05:00:50.035Z,8.23
2018-08-25T05:03:18.907Z,8.77
2018-08-25T05:05:47.867Z,8.37
2018-08-25T05:08:16.732Z,9.47
2018-08-25T05:10:45.547Z,9.37
2018-08-25T05:13:14.354Z,9.67
2018-08-25T05:15:43.300Z,7.83
2018-08-25T05:18:12.151Z,9.23
2018-08-25T05:20:41.049Z,8.07
2018-08-25T05:23:09.902Z,8.17
2018-08-25T05:25:38.867Z,8.33
2018-08-25T05:28:07.706Z,8.10
2018-08-25T05:30:36.554Z,8.20
2018-08-25T05:33:05.404Z,8.70
2018-08-25T05:35:34.379Z,10.93
2018-08-25T05:38:03.253Z,10.50
2018-08-25T05:40:32.198Z,9.10
2018-08-25T05:43:01.178Z,9.07
2018-08-25T05:45:30.087Z,8.27
2018-08-25T05:47:58.958Z,7.70
2018-08-25T05:50:27.823Z,9.23
2018-08-25T05:52:56.703Z,9.37
2018-08-25T05:55:25.663Z,9.40
2018-08-25T05:57:54.558Z,8.47
2018-08-25T06:00:23.423Z,9.13
2018-08-25T06:02:52.231Z,8.90
2018-08-25T06:05:21.118Z,8.90
2018-08-25T06:07:49.963Z,9.57
2018-08-25T06:10:18.793Z,11.00
2018-08-25T06:12:47.628Z,10.33
2018-08-25T06:15:16.471Z,9.67
2018-08-25T06:17:45.368Z,10.23
2018-08-25T06:20:14.159Z,13.50
2018-08-25T06:22:42.981Z,9.80
2018-08-25T06:25:11.832Z,9.57
2018-08-25T06:27:40.737Z,10.17
2018-08-25T06:30:09.679Z,10.10
2018-08-25T06:32:38.477Z,11.57
2018-08-25T06:35:08.224Z,10.63
2018-08-25T06:37:37.100Z,11.60
2018-08-25T06:40:06.087Z,10.80
2018-08-25T06:42:34.986Z,10.80
2018-08-25T06:45:03.852Z,12.43
2018-08-25T06:47:32.772Z,13.93
2018-08-25T06:50:01.623Z,12.10
2018-08-25T06:52:30.514Z,12.47
2018-08-25T06:54:59.375Z,11.63
2018-08-25T06:57:28.252Z,13.07
2018-08-25T06:59:57.128Z,12.17
2018-08-25T07:02:26.364Z,12.60
2018-08-25T07:04:55.211Z,14.10
2018-08-25T07:07:24.075Z,13.97
2018-08-25T07:09:52.954Z,13.83
2018-08-25T07:12:22.605Z,15.03
2018-08-25T07:14:51.706Z,15.70
2018-08-25T07:17:20.581Z,13.87
2018-08-25T07:19:49.592Z,13.80
2018-08-25T07:22:18.431Z,12.97
2018-08-25T07:24:47.264Z,12.63
2018-08-25T07:27:16.164Z,13.23
2018-08-25T07:29:44.987Z,14.20
2018-08-25T07:32:13.909Z,12.67
2018-08-25T07:34:42.693Z,12.53
2018-08-25T07:37:11.631Z,13.13
2018-08-25T07:39:40.555Z,12.77
2018-08-25T07:42:09.356Z,12.33
2018-08-25T07:44:38.283Z,12.60
2018-08-25T07:47:07.171Z,13.07
2018-08-25T07:49:36.082Z,12.17
2018-08-25T07:52:04.950Z,11.70
2018-08-25T07:54:33.808Z,14.60
2018-08-25T07:57:02.731Z,13.10
2018-08-25T07:59:31.551Z,11.60
2018-08-25T08:02:00.412Z,12.60
2018-08-25T08:04:29.252Z,11.93
2018-08-25T08:06:58.256Z,11.97
2018-08-25T08:09:27.108Z,11.80
2018-08-25T08:11:56.017Z,11.30
2018-08-25T08:14:24.811Z,12.50
2018-08-25T08:16:53.759Z,12.03
2018-08-25T08:19:22.595Z,10.87
2018-08-25T08:21:51.500Z,10.83
2018-08-25T08:24:20.303Z,12.30
2018-08-25T08:26:49.263Z,11.67
2018-08-25T08:29:18.072Z,11.40
2018-08-25T08:31:46.919Z,12.10
2018-08-25T08:34:15.751Z,11.60
2018-08-25T08:36:44.660Z,11.87
2018-08-25T08:39:13.555Z,11.87
2018-08-25T08:41:42.379Z,12.40
2018-08-25T08:44:11.374Z,12.10
2018-08-25T08:46:40.344Z,11.40
2018-08-25T08:49:09.186Z,11.80
2018-08-25T08:51:38.265Z,13.30
2018-08-25T08:54:07.153Z,12.70
2018-08-25T08:56:36.106Z,12.13
2018-08-25T08:59:04.964Z,12.40
2018-08-25T09:01:33.811Z,12.47
2018-08-25T09:04:02.638Z,9.97
2018-08-25T09:06:31.583Z,9.13
2018-08-25T09:09:00.427Z,10.30
2018-08-25T09:11:29.359Z,9.77
2018-08-25T09:13:58.135Z,9.00
2018-08-25T09:16:27.044Z,9.23
2018-08-25T09:18:55.878Z,7.40
2018-08-25T09:21:24.716Z,9.07
2018-08-25T09:23:53.568Z,8.93
2018-08-25T09:26:22.471Z,8.87
2018-08-25T09:28:51.324Z,8.90
2018-08-25T09:31:20.207Z,7.40
2018-08-25T09:33:49.279Z,8.70
2018-08-25T09:36:18.397Z,8.30
2018-08-25T09:38:47.100Z,11.00
2018-08-25T09:41:15.946Z,8.20
2018-08-25T09:43:44.778Z,9.00
2018-08-25T09:46:13.708Z,9.37
2018-08-25T09:48:42.539Z,9.47
2018-08-25T09:51:11.371Z,8.57
2018-08-25T09:53:40.229Z,10.63
2018-08-25T09:56:09.171Z,9.63
2018-08-25T09:58:38.011Z,8.10
2018-08-25T10:01:12.357Z,9.00
2018-08-25T10:03:41.197Z,8.50
2018-08-25T10:06:10.109Z,9.33
2018-08-25T10:08:39.012Z,8.30
2018-08-25T10:11:07.979Z,8.67
2018-08-25T10:13:36.895Z,7.47
2018-08-25T10:16:05.909Z,8.07
2018-08-25T10:18:34.828Z,7.03
2018-08-25T10:21:03.779Z,6.90
2018-08-25T10:23:32.706Z,7.77
2018-08-25T10:26:01.610Z,9.27
2018-08-25T10:28:30.524Z,9.80
2018-08-25T10:31:06.354Z,8.13
2018-08-25T10:33:35.215Z,8.20
2018-08-25T10:36:04.159Z,9.17
2018-08-25T10:38:33.031Z,8.53
2018-08-25T10:41:01.921Z,9.07
2018-08-25T10:43:30.799Z,9.67
2018-08-25T10:45:59.674Z,9.87
2018-08-25T10:48:28.570Z,9.50
2018-08-25T10:50:57.476Z,9.30
2018-08-25T10:53:26.388Z,11.53
2018-08-25T10:55:55.419Z,8.57
2018-08-25T10:58:24.285Z,9.43
2018-08-25T11:00:53.207Z,7.93
2018-08-25T11:03:21.955Z,9.63
2018-08-25T11:05:50.923Z,8.17
2018-08-25T11:08:19.907Z,9.00
2018-08-25T11:10:48.732Z,10.10
2018-08-25T11:13:17.576Z,9.07
2018-08-25T11:15:46.488Z,8.97
2018-08-25T11:18:15.364Z,9.20
2018-08-25T11:20:44.235Z,9.43
2018-08-25T11:23:13.072Z,9.97
2018-08-25T11:25:42.192Z,11.20
2018-08-25T11:28:11.137Z,10.73
2018-08-25T11:30:39.980Z,8.53
2018-08-25T11:33:08.907Z,9.97
2018-08-25T11:35:37.781Z,9.93
2018-08-25T11:38:06.772Z,10.00
2018-08-25T11:40:35.519Z,10.57
2018-08-25T11:43:04.392Z,10.13
2018-08-25T11:45:33.471Z,10.20
2018-08-25T11:48:02.311Z,8.70
2018-08-25T11:50:31.142Z,9.90
2018-08-25T11:52:59.955Z,9.27
2018-08-25T11:55:28.792Z,9.33
2018-08-25T11:57:57.634Z,9.87
2018-08-25T12:00:26.501Z,10.97
2018-08-25T12:02:55.364Z,9.67
2018-08-25T12:05:24.187Z,10.93
2018-08-25T12:07:53.030Z,10.33
2018-08-25T12:10:21.888Z,10.23
2018-08-25T12:12:50.735Z,10.07
2018-08-25T12:15:19.603Z,10.80
2018-08-25T12:17:48.447Z,11.20
2018-08-25T12:20:17.286Z,10.07
2018-08-25T12:22:46.116Z,13.23
2018-08-25T12:25:14.962Z,10.30
2018-08-25T12:27:43.908Z,10.63
2018-08-25T12:30:12.715Z,10.67
2018-08-25T12:32:41.543Z,10.77
2018-08-25T12:35:10.451Z,10.00
2018-08-25T12:37:39.334Z,11.87
2018-08-25T12:40:08.219Z,12.97
2018-08-25T12:42:37.087Z,12.20
2018-08-25T12:45:06.046Z,11.97
2018-08-25T12:47:34.904Z,10.57
2018-08-25T12:50:03.860Z,10.97
2018-08-25T12:52:32.716Z,10.20
2018-08-25T12:55:01.552Z,9.53
2018-08-25T12:57:30.528Z,9.43
2018-08-25T12:59:59.370Z,10.93
2018-08-25T13:02:28.188Z,9.90
2018-08-25T13:04:58.692Z,9.53
2018-08-25T13:07:27.642Z,9.50
2018-08-25T13:09:56.470Z,11.20
2018-08-25T13:12:25.318Z,9.93
2018-08-25T13:14:54.188Z,8.37
2018-08-25T13:17:23.079Z,9.50
2018-08-25T13:19:51.972Z,8.53
2018-08-25T13:22:20.802Z,8.50
2018-08-25T13:24:49.698Z,9.50
2018-08-25T13:27:18.600Z,8.37
2018-08-25T13:29:47.422Z,9.17
2018-08-25T13:32:16.279Z,8.50
2018-08-25T13:34:45.111Z,8.43
2018-08-25T13:37:14.064Z,7.23
2018-08-25T13:39:42.903Z,8.23
2018-08-25T13:42:11.723Z,8.20
2018-08-25T13:44:40.590Z,7.17
2018-08-25T13:47:09.530Z,9.90
2018-08-25T13:49:38.512Z,8.30
2018-08-25T13:52:07.444Z,11.73
2018-08-25T13:54:36.293Z,8.57
2018-08-25T13:57:05.194Z,10.50
2018-08-25T13:59:34.051Z,8.60
2018-08-25T14:02:02.975Z,8.43
2018-08-25T14:04:31.849Z,9.17
2018-08-25T14:07:00.734Z,9.47
2018-08-25T14:09:29.596Z,8.10
2018-08-25T14:11:58.400Z,7.37
2018-08-25T14:14:27.239Z,6.80
2018-08-25T14:16:56.079Z,8.70
2018-08-25T14:19:24.937Z,7.77
2018-08-25T14:21:53.772Z,7.50
2018-08-25T14:24:22.682Z,8.07
2018-08-25T14:26:51.576Z,8.00
2018-08-25T14:29:20.436Z,8.30
2018-08-25T14:31:49.499Z,8.83
2018-08-25T14:34:18.346Z,8.00
2018-08-25T14:36:47.298Z,8.07
2018-08-25T14:39:16.117Z,8.80
2018-08-25T14:41:45.005Z,9.57
2018-08-25T14:44:14.050Z,8.00
2018-08-25T14:46:43.188Z,7.63
2018-08-25T14:49:12.040Z,8.37
2018-08-25T14:51:40.905Z,8.73
2018-08-25T14:54:09.731Z,7.50
2018-08-25T14:56:38.919Z,8.67
2018-08-25T14:59:07.785Z,7.67
2018-08-25T15:01:36.607Z,7.20
2018-08-25T15:04:05.530Z,7.77
2018-08-25T15:06:34.417Z,8.23
2018-08-25T15:09:05.795Z,8.27
2018-08-25T15:11:34.604Z,7.63
2018-08-25T15:14:03.811Z,7.70
2018-08-25T15:16:32.775Z,8.17
2018-08-25T15:19:01.685Z,6.93
2018-08-25T15:21:30.515Z,6.70
2018-08-25T15:23:59.295Z,7.33
2018-08-25T15:26:28.319Z,8.10
2018-08-25T15:28:57.159Z,8.40
2018-08-25T15:31:26.253Z,6.60
2018-08-25T15:33:55.063Z,9.13
2018-08-25T15:36:23.974Z,7.90
2018-08-25T15:38:52.830Z,6.97
2018-08-25T15:41:21.698Z,6.63
2018-08-25T15:43:50.584Z,7.03
2018-08-25T15:46:19.535Z,7.33
2018-08-25T15:48:48.488Z,6.77
2018-08-25T15:51:17.339Z,8.40
2018-08-25T15:53:46.214Z,7.63
2018-08-25T15:56:15.100Z,7.37
2018-08-25T15:58:43.951Z,8.80
2018-08-25T16:01:12.788Z,7.30
2018-08-25T16:03:41.721Z,7.60
2018-08-25T16:06:10.589Z,7.90
2018-08-25T16:08:39.684Z,8.40
2018-08-25T16:11:08.512Z,8.07
2018-08-25T16:13:37.383Z,9.00
2018-08-25T16:16:06.243Z,8.50
2018-08-25T16:18:35.342Z,8.10
2018-08-25T16:21:04.281Z,8.13
2018-08-25T16:23:33.180Z,8.83
2018-08-25T16:26:02.361Z,8.27
2018-08-25T16:28:31.942Z,8.23
2018-08-25T16:31:00.851Z,8.10
2018-08-25T16:33:29.750Z,7.13
2018-08-25T16:35:58.667Z,7.77
2018-08-25T16:38:27.963Z,7.57
2018-08-25T16:40:57.305Z,7.03
2018-08-25T16:43:26.191Z,6.70
2018-08-25T16:45:55.133Z,7.90
2018-08-25T16:48:23.964Z,8.20
2018-08-25T16:50:53.089Z,7.67
2018-08-25T16:53:21.945Z,7.13
2018-08-25T16:55:50.918Z,7.90
2018-08-25T16:58:19.751Z,7.70
2018-08-25T17:00:48.591Z,7.73
2018-08-25T17:03:18.030Z,8.43
2018-08-25T17:05:46.990Z,8.40
2018-08-25T17:08:15.867Z,7.17
2018-08-25T17:10:44.775Z,6.03
2018-08-25T17:13:13.607Z,7.17
2018-08-25T17:15:42.475Z,5.87
2018-08-25T17:18:11.345Z,6.10
2018-08-25T17:20:40.223Z,7.07
2018-08-25T17:23:09.045Z,6.03
2018-08-25T17:25:37.920Z,6.30
2018-08-25T17:28:07.432Z,5.10
2018-08-25T17:30:36.430Z,6.33
2018-08-25T17:33:05.489Z,5.57
2018-08-25T17:35:34.371Z,6.17
2018-08-25T17:38:03.355Z,5.97
2018-08-25T17:40:32.220Z,6.07
2018-08-25T17:43:01.060Z,6.37
2018-08-25T17:45:29.899Z,6.53
2018-08-25T17:47:58.876Z,5.70
2018-08-25T17:50:28.897Z,5.90
2018-08-25T17:52:57.784Z,5.63
2018-08-25T17:55:26.653Z,6.77
2018-08-25T17:57:55.563Z,6.00
2018-08-25T18:00:24.427Z,5.53
2018-08-25T18:02:53.279Z,6.30
2018-08-25T18:05:22.148Z,5.90
2018-08-25T18:07:51.211Z,6.30
2018-08-25T18:10:20.088Z,6.20
2018-08-25T18:12:48.940Z,5.57
2018-08-25T18:15:17.811Z,5.83
2018-08-25T18:17:46.673Z,5.57
2018-08-25T18:20:16.358Z,8.67
2018-08-25T18:22:45.247Z,6.97
2018-08-25T18:25:14.088Z,4.60
2018-08-25T18:27:42.959Z,4.73
2018-08-25T18:30:11.896Z,6.20
2018-08-25T18:32:40.731Z,5.93
2018-08-25T18:35:09.588Z,5.40
2018-08-25T18:37:38.431Z,4.47
2018-08-25T18:40:07.368Z,6.43
2018-08-25T18:42:36.239Z,4.27
2018-08-25T18:45:05.320Z,4.60
2018-08-25T18:47:34.339Z,5.07
2018-08-25T18:50:03.271Z,5.60
2018-08-25T18:52:32.143Z,5.63
2018-08-25T18:55:01.059Z,10.97
2018-08-25T18:57:29.964Z,4.83
2018-08-25T18:59:58.758Z,5.43
2018-08-25T19:02:28.028Z,4.63
2018-08-25T19:04:56.839Z,4.00
2018-08-25T19:07:25.761Z,5.80
2018-08-25T19:09:55.488Z,7.00
2018-08-25T19:12:24.358Z,3.77
2018-08-25T19:14:53.192Z,4.27
2018-08-25T19:17:22.085Z,4.13
2018-08-25T19:19:50.959Z,3.93
2018-08-25T19:22:20.423Z,5.00
2018-08-25T19:24:49.300Z,4.53
2018-08-25T19:27:18.538Z,5.23
2018-08-25T19:29:47.403Z,4.23
2018-08-25T19:32:16.825Z,4.03
2018-08-25T19:34:45.722Z,4.07
2018-08-25T19:37:14.683Z,4.20
2018-08-25T19:39:43.512Z,5.63
2018-08-25T19:42:12.871Z,4.33
2018-08-25T19:44:41.807Z,3.80
2018-08-25T19:47:11.668Z,4.87
2018-08-25T19:49:40.456Z,3.53
2018-08-25T19:52:09.516Z,12.50
2018-08-25T19:54:38.428Z,6.23
2018-08-25T19:57:07.332Z,3.33
2018-08-25T19:59:36.159Z,3.57
2018-08-25T20:02:05.467Z,3.63
2018-08-25T20:04:34.319Z,3.70
2018-08-25T20:07:03.195Z,3.80
2018-08-25T20:09:32.193Z,4.10
2018-08-25T20:12:01.031Z,3.50
2018-08-25T20:14:29.967Z,4.53
2018-08-25T20:16:58.864Z,3.83
2018-08-25T20:19:27.706Z,3.83
2018-08-25T20:21:56.571Z,3.80
2018-08-25T20:24:26.175Z,4.10
2018-08-25T20:26:55.148Z,3.53
2018-08-25T20:29:24.479Z,5.13
2018-08-25T20:31:53.442Z,4.47
2018-08-25T20:34:22.255Z,4.50
2018-08-25T20:36:51.130Z,5.77
2018-08-25T20:39:19.986Z,3.53
2018-08-25T20:41:48.823Z,2.93
2018-08-25T20:44:17.652Z,5.00
2018-08-25T20:46:46.568Z,5.40
2018-08-25T20:49:15.403Z,4.30
2018-08-25T20:51:44.251Z,7.93
2018-08-25T20:54:13.099Z,5.47
2018-08-25T20:56:42.006Z,5.23
2018-08-25T20:59:10.842Z,6.40
2018-08-25T21:01:39.803Z,4.20
2018-08-25T21:04:09.111Z,3.50
2018-08-25T21:06:38.068Z,4.23
2018-08-25T21:09:09.295Z,6.30
2018-08-25T21:11:38.176Z,4.87
2018-08-25T21:14:07.668Z,5.07
2018-08-25T21:16:36.687Z,4.30
2018-08-25T21:19:05.575Z,6.23
2018-08-25T21:21:34.411Z,5.67
2018-08-25T21:24:04.035Z,3.87
2018-08-25T21:26:33.027Z,6.10
2018-08-25T21:29:01.871Z,3.87
2018-08-25T21:31:30.694Z,5.60
2018-08-25T21:33:59.540Z,7.10
2018-08-25T21:36:28.492Z,5.40
2018-08-25T21:38:57.339Z,6.30
2018-08-25T21:41:26.203Z,5.77
2018-08-25T21:43:55.039Z,5.67
2018-08-25T21:46:23.939Z,5.47
2018-08-25T21:48:52.795Z,5.93
2018-08-25T21:51:21.660Z,4.30
2018-08-25T21:53:50.494Z,5.20
2018-08-25T21:56:19.405Z,4.30
2018-08-25T21:58:48.240Z,4.97
2018-08-25T22:01:17.198Z,5.40
2018-08-25T22:03:45.980Z,5.00
2018-08-25T22:06:14.870Z,6.60
2018-08-25T22:08:46.634Z,4.80
2018-08-25T22:11:16.557Z,5.10
2018-08-25T22:13:45.976Z,5.43
2018-08-25T22:16:15.492Z,10.23
2018-08-25T22:18:44.699Z,5.93
2018-08-25T22:21:13.638Z,5.70
2018-08-25T22:23:43.256Z,4.77
2018-08-25T22:26:12.169Z,5.00
2018-08-25T22:28:41.021Z,4.40
2018-08-25T22:31:09.851Z,5.53
2018-08-25T22:33:38.714Z,4.67
2018-08-25T22:36:07.595Z,8.70
2018-08-25T22:38:36.435Z,4.93
2018-08-25T22:41:05.346Z,6.07
2018-08-25T22:43:34.747Z,5.13
2018-08-25T22:46:03.913Z,4.40
2018-08-25T22:48:32.808Z,5.53
2018-08-25T22:51:01.622Z,4.30
2018-08-25T22:53:30.466Z,4.27
2018-08-25T22:55:59.300Z,4.47
2018-08-25T22:58:28.111Z,4.30
2018-08-25T23:00:56.936Z,4.53
2018-08-25T23:03:25.752Z,6.07
2018-08-25T23:05:54.679Z,4.63
2018-08-25T23:08:23.498Z,4.10
2018-08-25T23:10:52.312Z,3.37
2018-08-25T23:13:21.131Z,6.20
2018-08-25T23:15:50.188Z,4.17
2018-08-25T23:18:19.000Z,3.80
2018-08-25T23:20:47.808Z,4.30
2018-08-25T23:23:16.688Z,4.57
2018-08-25T23:25:45.606Z,3.73
2018-08-25T23:28:14.579Z,3.50
2018-08-25T23:30:43.421Z,4.90
2018-08-25T23:33:12.235Z,4.33
2018-08-25T23:35:41.176Z,3.70
2018-08-25T23:38:09.979Z,2.90
2018-08-25T23:40:38.944Z,6.43
2018-08-25T23:43:07.774Z,3.97
2018-08-25T23:45:36.627Z,4.20
2018-08-25T23:48:05.578Z,4.00
2018-08-25T23:50:34.458Z,4.77
2018-08-25T23:53:03.423Z,3.30
2018-08-25T23:55:32.259Z,4.43
2018-08-25T23:58:01.076Z,4.63
